Time;durP1;ratioP1;P1;durP2;ratioP2;P2;SDS_P1;SDS_P2;PMS_P1;PMS_P2;Temp;Humidity;BMP_temperature;BMP_pressure;BME280_temperature;BME280_humidity;BME280_pressure;Samples;Min_cycle;Max_cycle;Signal;HPM_P1;HPM_P2
2023/12/29 00:00:08;;;;;;;7.28;1.27;;;10.80;99.90;;;;;;4953044;28;85930;-84
2023/12/29 00:02:34;;;;;;;10.38;1.88;;;10.70;99.90;;;;;;4952666;28;85819;-84
2023/12/29 00:05:00;;;;;;;8.85;1.42;;;10.80;99.90;;;;;;4957780;28;86622;-83
2023/12/29 00:07:28;;;;;;;9.68;1.65;;;10.80;99.90;;;;;;4952061;28;87109;-84
2023/12/29 00:09:54;;;;;;;10.43;1.20;;;10.80;99.90;;;;;;4955129;28;86100;-85
2023/12/29 00:13:05;;;;;;;5.90;1.52;;;10.80;99.90;;;;;;4947166;28;86009;-82
2023/12/29 00:15:34;;;;;;;7.72;1.23;;;10.80;99.90;;;;;;4953782;28;86611;-83
2023/12/29 00:18:00;;;;;;;8.55;1.23;;;10.80;99.90;;;;;;4938773;28;85869;-83
2023/12/29 00:20:26;;;;;;;7.45;1.80;;;10.80;99.90;;;;;;4967874;28;86291;-84
2023/12/29 00:22:53;;;;;;;8.43;1.77;;;10.70;99.90;;;;;;4937727;28;85758;-84
2023/12/29 00:25:19;;;;;;;10.43;1.50;;;10.80;99.90;;;;;;4952803;28;87370;-83
2023/12/29 00:27:46;;;;;;;9.43;1.30;;;10.80;99.90;;;;;;4956339;28;85705;-83
2023/12/29 00:30:12;;;;;;;13.98;1.63;;;10.80;99.90;;;;;;4931841;28;85901;-84
2023/12/29 00:32:37;;;;;;;8.85;1.52;;;10.80;99.90;;;;;;4949391;28;85897;-83
2023/12/29 00:35:07;;;;;;;11.52;1.75;;;10.80;99.90;;;;;;4953967;28;88037;-84
2023/12/29 00:37:34;;;;;;;9.70;1.75;;;10.80;99.90;;;;;;4943580;28;88660;-85
2023/12/29 00:40:00;;;;;;;8.65;1.80;;;10.80;99.90;;;;;;4967910;28;85856;-83
2023/12/29 00:42:32;;;;;;;5.53;1.27;;;10.70;99.90;;;;;;4951917;28;85903;-84
2023/12/29 00:45:01;;;;;;;12.73;1.60;;;10.70;99.90;;;;;;4954468;28;86724;-84
2023/12/29 00:47:28;;;;;;;10.55;1.90;;;10.70;99.90;;;;;;4957049;28;85976;-82
2023/12/29 00:49:54;;;;;;;9.43;1.52;;;10.70;99.90;;;;;;4956534;28;86289;-84
2023/12/29 00:52:21;;;;;;;7.10;1.33;;;10.70;99.90;;;;;;4956613;28;86068;-83
2023/12/29 00:54:49;;;;;;;12.23;2.10;;;10.70;99.90;;;;;;4943878;28;87523;-84
2023/12/29 00:57:16;;;;;;;15.95;2.50;;;10.70;99.90;;;;;;4940266;28;85865;-83
2023/12/29 00:59:49;;;;;;;7.68;1.52;;;10.70;99.90;;;;;;4956761;28;85936;-84
2023/12/29 01:02:17;;;;;;;11.13;1.52;;;10.70;99.90;;;;;;4956342;28;85685;-83
2023/12/29 01:04:44;;;;;;;10.82;1.52;;;10.70;99.90;;;;;;4958097;28;91493;-83
2023/12/29 01:07:10;;;;;;;8.77;1.55;;;10.70;99.90;;;;;;4957138;28;86726;-83
2023/12/29 01:09:40;;;;;;;5.00;1.27;;;10.70;99.90;;;;;;4958790;28;86702;-84
2023/12/29 01:12:06;;;;;;;10.05;1.73;;;10.70;99.90;;;;;;4955411;28;86219;-83
2023/12/29 01:14:31;;;;;;;13.00;2.83;;;10.70;99.90;;;;;;4958417;28;85928;-83
2023/12/29 01:16:58;;;;;;;7.72;1.30;;;10.70;99.90;;;;;;4958982;28;86241;-83
2023/12/29 01:19:25;;;;;;;12.80;2.17;;;10.70;99.90;;;;;;4955592;28;85874;-84
2023/12/29 01:21:51;;;;;;;13.00;2.25;;;10.70;99.90;;;;;;4956316;28;86232;-84
2023/12/29 01:24:17;;;;;;;12.13;2.15;;;10.70;99.90;;;;;;4956988;28;86844;-83
2023/12/29 01:26:43;;;;;;;11.02;1.83;;;10.70;99.90;;;;;;4957512;28;85937;-83
2023/12/29 01:29:09;;;;;;;10.95;1.70;;;10.70;99.90;;;;;;4959604;28;85884;-82
2023/12/29 01:31:36;;;;;;;10.15;1.67;;;10.70;99.90;;;;;;4956061;28;86218;-83
2023/12/29 01:34:02;;;;;;;9.77;1.70;;;10.70;99.90;;;;;;4970024;28;86410;-83
2023/12/29 01:36:31;;;;;;;11.98;2.03;;;10.70;99.90;;;;;;4953933;28;86757;-83
2023/12/29 01:38:57;;;;;;;11.95;1.73;;;10.70;99.90;;;;;;4951403;28;85845;-83
2023/12/29 01:41:25;;;;;;;11.38;1.60;;;10.70;99.90;;;;;;4946054;28;86179;-83
2023/12/29 01:44:02;;;;;;;9.40;1.75;;;10.70;99.90;;;;;;4962833;28;86546;-83
2023/12/29 01:46:34;;;;;;;7.13;1.90;;;10.70;99.90;;;;;;4962498;28;86201;-82
2023/12/29 01:49:04;;;;;;;7.53;1.50;;;10.70;99.90;;;;;;4957072;28;86318;-83
2023/12/29 01:51:53;;;;;;;14.75;1.90;;;10.70;99.90;;;;;;4955549;28;86212;-83
2023/12/29 01:54:20;;;;;;;6.82;1.58;;;10.70;99.90;;;;;;4937042;28;87245;-82
2023/12/29 01:56:47;;;;;;;10.48;1.77;;;10.70;99.90;;;;;;4971448;28;86195;-82
2023/12/29 01:59:15;;;;;;;12.65;1.52;;;10.70;99.90;;;;;;4955140;28;86734;-84
2023/12/29 02:01:41;;;;;;;10.13;1.67;;;10.70;99.90;;;;;;4955607;28;85962;-84
2023/12/29 02:04:17;;;;;;;13.50;1.90;;;10.70;99.90;;;;;;4954306;28;87335;-84
2023/12/29 02:06:43;;;;;;;14.68;3.50;;;10.70;99.90;;;;;;4954746;28;86919;-84
2023/12/29 02:09:09;;;;;;;11.27;1.92;;;10.60;99.90;;;;;;4956317;28;85908;-83
2023/12/29 02:11:35;;;;;;;8.00;1.92;;;10.60;99.90;;;;;;4947457;28;85979;-83
2023/12/29 02:14:02;;;;;;;12.43;2.00;;;10.70;99.90;;;;;;4956464;28;86519;-84
2023/12/29 02:16:40;;;;;;;12.95;1.35;;;10.70;99.90;;;;;;4953469;28;86992;-83
2023/12/29 02:19:40;;;;;;;11.38;1.85;;;10.60;99.90;;;;;;4952452;28;86436;-83
2023/12/29 02:22:08;;;;;;;15.40;2.40;;;10.60;99.90;;;;;;4952370;28;85955;-83
2023/12/29 02:24:35;;;;;;;9.60;1.23;;;10.70;99.90;;;;;;4963617;28;86765;-82
2023/12/29 02:27:26;;;;;;;13.75;1.92;;;10.70;99.90;;;;;;4951280;28;87500;-84
2023/12/29 02:30:22;;;;;;;8.55;1.77;;;10.60;99.90;;;;;;4946247;28;86619;-84
2023/12/29 02:33:01;;;;;;;7.03;1.70;;;10.60;99.90;;;;;;4954731;28;85974;-83
2023/12/29 02:35:32;;;;;;;8.40;1.52;;;10.60;99.90;;;;;;4971318;28;88640;-82
2023/12/29 02:38:02;;;;;;;9.13;1.48;;;10.60;99.90;;;;;;4951911;28;87189;-84
2023/12/29 02:40:28;;;;;;;8.95;1.30;;;10.60;99.90;;;;;;4952789;28;86427;-83
2023/12/29 02:42:56;;;;;;;8.05;1.38;;;10.60;99.90;;;;;;4947138;28;86211;-82
2023/12/29 02:45:44;;;;;;;8.55;1.35;;;10.60;99.90;;;;;;4953844;28;86285;-83
2023/12/29 02:48:20;;;;;;;12.25;1.70;;;10.60;99.90;;;;;;4946348;28;86055;-84
2023/12/29 02:50:46;;;;;;;9.20;1.30;;;10.60;99.90;;;;;;4954471;28;86689;-83
2023/12/29 02:53:13;;;;;;;11.57;1.20;;;10.50;99.90;;;;;;4954252;28;85883;-84
2023/12/29 02:55:38;;;;;;;8.90;2.80;;;10.50;99.90;;;;;;4956567;28;86820;-83
2023/12/29 02:58:06;;;;;;;6.40;1.27;;;10.50;99.90;;;;;;4955941;28;86425;-83
2023/12/29 03:00:35;;;;;;;10.82;1.38;;;10.50;99.90;;;;;;4957737;28;86319;-84
2023/12/29 03:03:01;;;;;;;7.75;1.25;;;10.50;99.90;;;;;;4937768;28;85844;-83
2023/12/29 03:05:26;;;;;;;11.27;1.20;;;10.50;99.90;;;;;;4950101;28;90187;-83
2023/12/29 03:07:53;;;;;;;10.57;1.63;;;10.60;99.90;;;;;;4955419;28;86262;-84
2023/12/29 03:10:24;;;;;;;9.75;1.25;;;10.60;99.90;;;;;;4955109;28;86152;-83
2023/12/29 03:12:50;;;;;;;10.55;1.58;;;10.60;99.90;;;;;;4937177;28;85996;-83
2023/12/29 03:15:17;;;;;;;7.72;1.20;;;10.60;99.90;;;;;;4935525;28;87069;-84
2023/12/29 03:17:43;;;;;;;4.93;0.90;;;10.70;99.90;;;;;;4953323;28;89235;-84
2023/12/29 03:20:10;;;;;;;8.75;1.35;;;10.60;99.90;;;;;;4938064;28;85914;-84
2023/12/29 03:22:36;;;;;;;8.40;1.27;;;10.70;99.90;;;;;;4939948;28;86779;-84
2023/12/29 03:25:02;;;;;;;9.02;1.30;;;10.70;99.90;;;;;;4940325;28;88481;-83
2023/12/29 03:27:30;;;;;;;8.88;1.25;;;10.70;99.90;;;;;;4952234;28;86629;-83
2023/12/29 03:29:57;;;;;;;16.13;1.75;;;10.70;99.90;;;;;;4947573;28;85893;-83
2023/12/29 03:32:27;;;;;;;8.70;1.13;;;10.80;99.90;;;;;;4954710;28;86718;-84
2023/12/29 03:34:52;;;;;;;8.00;1.13;;;10.80;99.90;;;;;;4955091;28;87376;-84
2023/12/29 03:37:21;;;;;;;11.48;1.33;;;10.80;99.90;;;;;;4957857;28;87087;-83
2023/12/29 03:39:49;;;;;;;11.30;1.27;;;10.80;99.90;;;;;;4956102;28;85628;-85
2023/12/29 03:42:14;;;;;;;15.02;2.03;;;10.80;99.90;;;;;;4954396;28;86159;-84
2023/12/29 03:44:40;;;;;;;10.25;1.50;;;10.80;99.90;;;;;;4938361;28;86526;-84
2023/12/29 03:47:07;;;;;;;12.95;1.23;;;10.70;99.90;;;;;;4959004;28;86440;-83
2023/12/29 03:49:38;;;;;;;10.40;1.25;;;10.80;99.90;;;;;;4951722;28;85825;-83
2023/12/29 03:52:04;;;;;;;8.57;1.20;;;10.70;99.90;;;;;;4950725;28;86044;-82
2023/12/29 03:54:31;;;;;;;7.85;1.30;;;10.70;99.90;;;;;;4952332;28;86381;-83
2023/12/29 03:56:58;;;;;;;7.43;1.00;;;10.70;99.90;;;;;;4952815;28;86586;-83
2023/12/29 03:59:24;;;;;;;11.82;1.30;;;10.70;99.90;;;;;;4954587;28;86720;-84
2023/12/29 04:01:52;;;;;;;10.32;1.42;;;10.70;99.90;;;;;;4971255;28;85800;-84
2023/12/29 04:04:17;;;;;;;8.18;1.33;;;10.70;99.90;;;;;;4935982;28;86260;-84
2023/12/29 04:06:43;;;;;;;10.23;1.33;;;10.70;99.90;;;;;;4956335;28;87057;-84
2023/12/29 04:09:12;;;;;;;8.10;1.20;;;10.60;99.90;;;;;;4955728;28;85927;-84
2023/12/29 04:11:38;;;;;;;11.95;1.52;;;10.70;99.90;;;;;;4954477;28;86279;-85
2023/12/29 04:17:51;;;;;;;10.07;1.65;;;10.60;99.90;;;;;;4954108;28;86171;-83
2023/12/29 04:20:21;;;;;;;9.20;1.00;;;10.60;99.90;;;;;;4960155;28;86046;-84
2023/12/29 04:22:47;;;;;;;8.63;1.38;;;10.50;99.90;;;;;;4958629;28;86816;-83
2023/12/29 04:25:14;;;;;;;12.32;1.65;;;10.60;99.90;;;;;;4949090;28;86788;-85
2023/12/29 04:27:44;;;;;;;8.15;1.38;;;10.50;99.90;;;;;;4958566;28;88405;-84
2023/12/29 04:30:10;;;;;;;7.93;1.20;;;10.50;99.90;;;;;;4953562;28;86199;-84
2023/12/29 04:32:38;;;;;;;9.45;1.45;;;10.50;99.90;;;;;;4958562;28;86084;-85
2023/12/29 04:35:05;;;;;;;13.85;1.35;;;10.60;99.90;;;;;;4956313;28;86367;-84
2023/12/29 04:37:33;;;;;;;6.63;1.77;;;10.50;99.90;;;;;;4941825;28;86492;-84
2023/12/29 04:39:59;;;;;;;12.23;2.03;;;10.50;99.90;;;;;;4959759;28;86588;-84
2023/12/29 04:42:32;;;;;;;9.75;1.58;;;10.50;99.90;;;;;;4956926;28;85604;-84
2023/12/29 04:44:59;;;;;;;14.75;1.52;;;10.50;99.90;;;;;;4933624;28;85953;-85
2023/12/29 04:47:26;;;;;;;7.45;1.30;;;10.40;99.90;;;;;;4920543;28;85615;-84
2023/12/29 04:49:53;;;;;;;9.23;1.25;;;10.40;99.90;;;;;;4949332;28;86234;-84
2023/12/29 04:52:20;;;;;;;11.57;2.00;;;10.40;99.90;;;;;;4971484;28;86508;-84
2023/12/29 04:54:47;;;;;;;5.47;0.90;;;10.40;99.90;;;;;;4958264;28;87576;-85
2023/12/29 04:57:12;;;;;;;12.20;1.88;;;10.30;99.90;;;;;;4956225;28;87980;-84
2023/12/29 04:59:38;;;;;;;4.60;0.93;;;10.30;99.90;;;;;;4956961;28;85912;-84
2023/12/29 05:02:04;;;;;;;11.85;2.42;;;10.30;99.90;;;;;;4957607;28;85722;-84
2023/12/29 05:04:30;;;;;;;12.20;1.58;;;10.30;99.90;;;;;;4956437;28;87332;-84
2023/12/29 05:06:55;;;;;;;6.60;1.77;;;10.30;99.90;;;;;;4956917;28;86085;-83
2023/12/29 05:09:22;;;;;;;6.65;1.27;;;10.20;99.90;;;;;;4958857;28;86171;-83
2023/12/29 05:11:48;;;;;;;8.65;1.25;;;10.20;99.90;;;;;;4958167;28;85847;-85
2023/12/29 05:14:18;;;;;;;11.02;1.33;;;10.20;99.90;;;;;;4942297;28;86334;-84
2023/12/29 05:16:45;;;;;;;14.23;1.50;;;10.20;99.90;;;;;;4958243;28;89621;-83
2023/12/29 05:19:16;;;;;;;11.95;1.35;;;10.20;99.90;;;;;;4955692;28;86264;-84
2023/12/29 05:21:43;;;;;;;12.77;1.35;;;10.20;99.90;;;;;;4956797;28;86446;-84
2023/12/29 05:24:10;;;;;;;10.38;0.90;;;10.20;99.90;;;;;;4955503;28;86230;-84
2023/12/29 05:26:36;;;;;;;5.65;0.90;;;10.20;99.90;;;;;;4956991;28;86345;-85
2023/12/29 05:29:04;;;;;;;5.32;0.88;;;10.20;99.90;;;;;;4958593;28;85929;-85
2023/12/29 05:31:29;;;;;;;9.48;1.45;;;10.20;99.90;;;;;;4953033;28;85833;-85
2023/12/29 05:33:56;;;;;;;13.45;2.10;;;10.30;99.90;;;;;;4957100;28;86412;-84
2023/12/29 05:36:21;;;;;;;10.10;1.48;;;10.30;99.90;;;;;;4956998;28;86616;-84
2023/12/29 05:38:47;;;;;;;7.65;1.08;;;10.30;99.90;;;;;;4955155;28;85895;-84
2023/12/29 05:41:14;;;;;;;13.35;2.20;;;10.30;99.90;;;;;;4957439;28;86322;-84
2023/12/29 05:43:43;;;;;;;7.47;1.00;;;10.40;99.90;;;;;;4946852;28;87163;-82
2023/12/29 05:46:12;;;;;;;7.13;1.50;;;10.40;99.90;;;;;;4942850;28;85966;-83
2023/12/29 05:48:39;;;;;;;11.35;1.40;;;10.40;99.90;;;;;;4955237;28;86558;-84
2023/12/29 05:51:14;;;;;;;10.20;1.20;;;10.40;99.90;;;;;;4951140;28;86451;-83
2023/12/29 05:53:41;;;;;;;6.97;0.90;;;10.50;99.90;;;;;;4939189;28;85763;-82
2023/12/29 05:56:07;;;;;;;10.13;1.00;;;10.40;99.90;;;;;;4958191;28;86230;-84
2023/12/29 05:58:34;;;;;;;7.43;2.10;;;10.50;99.90;;;;;;4960499;28;85688;-84
2023/12/29 06:01:02;;;;;;;7.93;1.27;;;10.50;99.90;;;;;;4927351;28;85992;-85
2023/12/29 06:03:28;;;;;;;8.95;1.02;;;10.50;99.90;;;;;;4958953;28;87722;-84
2023/12/29 06:05:55;;;;;;;13.13;1.23;;;10.50;99.90;;;;;;4940660;28;87105;-85
2023/12/29 06:08:29;;;;;;;11.43;1.08;;;10.50;99.90;;;;;;4937348;28;86511;-83
2023/12/29 06:11:09;;;;;;;8.82;1.27;;;10.50;99.90;;;;;;4958970;28;85741;-84
2023/12/29 06:13:40;;;;;;;10.30;1.13;;;10.50;99.90;;;;;;4957120;28;87234;-84
2023/12/29 06:16:06;;;;;;;7.00;1.48;;;10.50;99.90;;;;;;4942372;28;86070;-84
2023/12/29 06:18:32;;;;;;;14.93;1.48;;;10.50;99.90;;;;;;4932739;28;86043;-84
2023/12/29 06:21:06;;;;;;;6.75;1.23;;;10.50;99.90;;;;;;4955306;28;85982;-84
2023/12/29 06:23:31;;;;;;;11.75;1.77;;;10.50;99.90;;;;;;4939521;28;87542;-85
2023/12/29 06:25:57;;;;;;;12.10;1.80;;;10.50;99.90;;;;;;4956244;28;85918;-84
2023/12/29 06:28:23;;;;;;;10.10;1.50;;;10.50;99.90;;;;;;4925566;28;86094;-85
2023/12/29 06:30:52;;;;;;;8.10;1.30;;;10.50;99.90;;;;;;4959113;28;86208;-84
2023/12/29 06:33:20;;;;;;;8.13;1.30;;;10.50;99.90;;;;;;4954598;28;87436;-85
2023/12/29 06:35:46;;;;;;;8.63;0.95;;;10.50;99.90;;;;;;4957652;28;86528;-84
2023/12/29 06:38:13;;;;;;;9.27;1.63;;;10.60;99.90;;;;;;4940339;28;86220;-85
2023/12/29 06:40:39;;;;;;;12.02;1.73;;;10.50;99.90;;;;;;4956403;28;86740;-85
2023/12/29 06:43:07;;;;;;;11.52;2.15;;;10.60;99.90;;;;;;4925751;28;86626;-84
2023/12/29 06:45:33;;;;;;;7.90;1.15;;;10.60;99.90;;;;;;4973440;28;86478;-84
2023/12/29 06:47:59;;;;;;;6.32;1.38;;;10.60;99.90;;;;;;4957584;28;86449;-85
2023/12/29 06:50:25;;;;;;;11.15;1.48;;;10.50;99.90;;;;;;4955281;28;85985;-83
2023/12/29 06:52:52;;;;;;;11.80;2.15;;;10.50;99.90;;;;;;4957958;28;86699;-84
2023/12/29 06:55:21;;;;;;;10.85;2.00;;;10.40;99.90;;;;;;4953408;28;88823;-83
2023/12/29 06:58:05;;;;;;;11.43;1.98;;;10.30;99.90;;;;;;4955356;28;86254;-84
2023/12/29 07:00:35;;;;;;;11.38;1.48;;;10.20;99.90;;;;;;4957876;28;86469;-86
2023/12/29 07:03:02;;;;;;;17.13;1.92;;;10.20;99.90;;;;;;4946646;28;87983;-84
2023/12/29 07:05:27;;;;;;;9.02;1.90;;;10.10;99.90;;;;;;4952068;28;86626;-85
2023/12/29 07:07:53;;;;;;;13.68;1.55;;;10.10;99.90;;;;;;4958753;28;86373;-84
2023/12/29 07:10:19;;;;;;;9.85;1.60;;;9.90;99.90;;;;;;4957197;28;85751;-85
2023/12/29 07:12:45;;;;;;;16.27;1.80;;;9.90;99.90;;;;;;4957740;28;86807;-85
2023/12/29 07:15:13;;;;;;;17.98;1.52;;;9.80;99.90;;;;;;4958890;28;86339;-86
2023/12/29 07:17:39;;;;;;;18.50;2.60;;;9.80;99.90;;;;;;4942510;28;86258;-86
2023/12/29 07:20:17;;;;;;;16.42;2.10;;;9.70;99.90;;;;;;4943565;28;85902;-85
2023/12/29 07:22:42;;;;;;;15.35;1.15;;;9.70;99.90;;;;;;4952946;28;90006;-86
2023/12/29 07:25:09;;;;;;;12.65;1.23;;;9.70;99.90;;;;;;4959509;28;86723;-85
2023/12/29 07:27:43;;;;;;;15.32;1.67;;;9.70;99.90;;;;;;4948887;28;86313;-85
2023/12/29 07:30:10;;;;;;;10.40;1.30;;;9.60;99.90;;;;;;4938664;28;86094;-85
2023/12/29 07:32:36;;;;;;;15.63;2.38;;;9.60;99.90;;;;;;4941243;28;86792;-86
2023/12/29 07:35:04;;;;;;;12.40;1.38;;;9.60;99.90;;;;;;4959899;28;86736;-85
2023/12/29 07:37:30;;;;;;;10.88;1.30;;;9.60;99.90;;;;;;4960461;28;86055;-85
2023/12/29 07:39:58;;;;;;;9.45;1.67;;;9.60;99.90;;;;;;4959048;28;85804;-85
2023/12/29 07:42:33;;;;;;;11.65;1.55;;;9.60;99.90;;;;;;4941290;28;86309;-86
2023/12/29 07:44:59;;;;;;;11.85;1.45;;;9.60;99.90;;;;;;4938015;28;87406;-87
2023/12/29 07:47:27;;;;;;;13.27;1.65;;;9.60;99.90;;;;;;4954075;28;86106;-85
2023/12/29 07:49:54;;;;;;;11.07;1.50;;;9.60;99.90;;;;;;4964430;28;86345;-85
2023/12/29 07:52:20;;;;;;;8.30;1.30;;;9.50;99.90;;;;;;4936967;28;86380;-85
2023/12/29 07:54:46;;;;;;;8.68;1.27;;;9.50;99.90;;;;;;4942658;28;87397;-84
2023/12/29 07:57:15;;;;;;;12.30;1.33;;;9.60;99.90;;;;;;4962993;28;85689;-86
2023/12/29 07:59:42;;;;;;;10.38;1.52;;;9.60;99.90;;;;;;4959668;28;86008;-83
2023/12/29 08:02:16;;;;;;;9.45;1.40;;;9.60;99.90;;;;;;4964092;28;85878;-85
2023/12/29 08:04:42;;;;;;;10.10;1.20;;;9.60;99.90;;;;;;4953472;28;90424;-83
2023/12/29 08:07:09;;;;;;;9.80;1.50;;;9.60;99.90;;;;;;4975832;28;85865;-85
2023/12/29 08:09:35;;;;;;;9.63;1.90;;;9.70;99.90;;;;;;4952022;28;85874;-85
2023/12/29 09:39:20;;;;;;;8.77;1.10;;;10.40;99.90;;;;;;4985145;28;86615;-87
2023/12/29 09:42:18;;;;;;;11.93;2.47;;;10.40;99.90;;;;;;4986305;28;85838;-85
2023/12/29 11:01:14;;;;;;;9.15;0.93;;;10.90;99.90;;;;;;5445854;22;86565;-87
2023/12/29 11:04:29;;;;;;;5.88;1.33;;;10.90;99.90;;;;;;4953017;28;86168;-85
2023/12/29 11:08:01;;;;;;;6.72;1.33;;;11.00;99.90;;;;;;4906741;28;85675;-87
2023/12/29 11:14:50;;;;;;;7.63;0.73;;;11.00;99.90;;;;;;4895912;28;85772;-86
2023/12/29 11:18:01;;;;;;;2.78;0.75;;;11.00;99.90;;;;;;4909209;28;85985;-87
2023/12/29 11:27:04;;;;;;;6.80;1.13;;;10.90;99.90;;;;;;5621953;22;87414;-85
2023/12/29 11:30:14;;;;;;;9.40;0.98;;;10.90;99.90;;;;;;4950770;28;85779;-83
2023/12/29 12:28:50;;;;;;;3.03;0.68;;;11.00;99.90;;;;;;5291619;22;86805;-87
2023/12/29 12:32:15;;;;;;;6.95;1.25;;;11.00;99.90;;;;;;4978771;28;85749;-87
2023/12/29 12:42:08;;;;;;;5.28;0.73;;;11.00;99.90;;;;;;4961573;28;85806;-87
2023/12/29 12:45:04;;;;;;;4.22;1.38;;;11.00;99.90;;;;;;4954029;28;87940;-86
2023/12/29 12:47:42;;;;;;;8.20;1.20;;;11.00;99.90;;;;;;4978134;28;87661;-86
2023/12/29 12:50:59;;;;;;;8.30;1.10;;;10.90;99.90;;;;;;4970121;28;85893;-87
2023/12/29 12:54:08;;;;;;;8.85;1.20;;;10.90;99.90;;;;;;4989699;28;86771;-87
2023/12/29 12:57:32;;;;;;;7.25;0.90;;;10.90;99.90;;;;;;4908210;28;86755;-86
2023/12/29 13:00:22;;;;;;;9.60;1.15;;;10.80;99.90;;;;;;4937922;28;86611;-85
2023/12/29 13:03:19;;;;;;;8.70;1.10;;;10.70;99.90;;;;;;4945497;28;85664;-84
2023/12/29 13:06:12;;;;;;;6.28;1.08;;;10.60;99.90;;;;;;4912497;28;85516;-86
2023/12/29 13:09:27;;;;;;;8.82;1.13;;;10.60;99.90;;;;;;4929810;28;87777;-86
2023/12/29 13:19:02;;;;;;;3.97;1.10;;;10.50;99.90;;;;;;4872872;29;85880;-87
2023/12/29 15:24:45;;;;;;;9.27;1.00;;;10.40;99.90;;;;;;5542555;22;88190;-86
2023/12/29 15:27:17;;;;;;;4.82;0.85;;;10.40;99.90;;;;;;4955037;28;86350;-85
2023/12/29 15:30:11;;;;;;;4.15;1.08;;;10.40;99.90;;;;;;4911333;28;86725;-85
2023/12/29 15:32:49;;;;;;;2.75;1.20;;;10.40;99.90;;;;;;4925383;28;85799;-85
2023/12/29 15:35:15;;;;;;;5.40;0.90;;;10.40;99.90;;;;;;4943899;28;86027;-86
2023/12/29 15:37:45;;;;;;;7.40;1.25;;;10.40;99.90;;;;;;4946524;28;86655;-84
2023/12/29 15:41:02;;;;;;;4.25;0.95;;;10.40;99.90;;;;;;4951658;28;88075;-86
2023/12/29 15:43:49;;;;;;;4.82;1.02;;;10.40;99.90;;;;;;4943617;28;86524;-86
2023/12/29 16:33:21;;;;;;;7.75;1.25;;;10.30;99.90;;;;;;5880425;22;87295;-88
2023/12/29 17:01:45;;;;;;;6.55;1.35;;;10.10;99.90;;;;;;5183291;22;87807;-88
2023/12/29 17:04:59;;;;;;;8.35;1.27;;;10.10;99.90;;;;;;4985344;28;86700;-88
2023/12/29 17:11:41;;;;;;;6.25;1.40;;;10.00;99.90;;;;;;4998905;28;85336;-87
2023/12/29 17:14:48;;;;;;;10.57;3.47;;;9.90;99.90;;;;;;4940152;28;87359;-87
2023/12/29 17:20:49;;;;;;;9.65;1.50;;;10.00;99.90;;;;;;4998633;28;85822;-88
2023/12/29 17:24:10;;;;;;;11.10;1.80;;;10.00;99.90;;;;;;4986057;28;85529;-88
2023/12/29 17:27:30;;;;;;;12.52;1.63;;;10.00;99.90;;;;;;4990844;28;85800;-87
2023/12/29 17:30:43;;;;;;;7.25;1.10;;;10.10;99.90;;;;;;4966470;28;86171;-88
2023/12/29 17:58:20;;;;;;;4.38;1.17;;;10.30;99.90;;;;;;5511113;22;86750;-88
2023/12/29 18:54:35;;;;;;;9.23;0.80;;;10.40;99.90;;;;;;5042551;22;85500;-87
2023/12/29 18:57:02;;;;;;;4.53;0.93;;;10.40;99.90;;;;;;4937487;28;86471;-86
2023/12/29 18:59:28;;;;;;;11.00;1.27;;;10.30;99.90;;;;;;4958898;28;85681;-86
2023/12/29 19:01:57;;;;;;;8.98;1.08;;;10.30;99.90;;;;;;4957487;28;85819;-86
2023/12/29 19:56:45;;;;;;;11.85;1.70;;;10.10;99.90;;;;;;5125179;22;87377;-84
2023/12/29 20:00:02;;;;;;;14.98;2.03;;;10.00;99.90;;;;;;4924136;28;89401;-84
2023/12/29 20:02:33;;;;;;;14.35;2.17;;;10.00;99.90;;;;;;4947285;28;87575;-81
2023/12/29 20:41:21;;;;;;;9.20;1.17;;;9.60;99.90;;;;;;5529575;22;87455;-84
2023/12/29 20:46:23;;;;;;;10.15;1.35;;;9.60;99.90;;;;;;5537611;22;87054;-81
2023/12/29 20:48:52;;;;;;;5.35;0.98;;;9.60;99.90;;;;;;4933924;28;86022;-81
2023/12/29 20:51:21;;;;;;;6.60;0.88;;;9.60;99.90;;;;;;4935121;28;88517;-83
2023/12/29 20:53:50;;;;;;;4.40;0.68;;;9.70;99.90;;;;;;4935744;28;87823;-81
2023/12/29 20:56:25;;;;;;;4.30;0.82;;;9.60;99.90;;;;;;4943460;28;85863;-85
2023/12/29 21:04:23;;;;;;;9.70;0.57;;;9.50;99.90;;;;;;5181890;22;87123;-86
2023/12/29 21:06:58;;;;;;;6.80;0.50;;;9.40;99.90;;;;;;4920289;28;86002;-85
2023/12/29 21:09:24;;;;;;;3.55;0.60;;;9.40;99.90;;;;;;4927830;28;85708;-81
2023/12/29 21:11:51;;;;;;;9.35;1.05;;;9.30;99.90;;;;;;4907408;28;88710;-81
2023/12/29 21:14:17;;;;;;;6.47;1.02;;;9.30;99.90;;;;;;4924083;28;86429;-80
2023/12/29 21:16:42;;;;;;;4.82;0.50;;;9.30;99.90;;;;;;4907989;28;85972;-80
2023/12/29 21:19:15;;;;;;;5.20;1.00;;;9.20;99.90;;;;;;4942966;28;85934;-86
2023/12/29 21:32:39;;;;;;;6.50;0.80;;;8.80;99.90;;;;;;5550529;22;87526;-87
2023/12/29 21:35:47;;;;;;;3.83;0.73;;;8.70;99.90;;;;;;4953527;28;87391;-86
2023/12/29 21:38:35;;;;;;;6.63;0.95;;;8.70;99.90;;;;;;4943903;28;85844;-86
2023/12/29 21:41:46;;;;;;;8.52;1.02;;;8.60;99.90;;;;;;4947027;28;86102;-86
2023/12/29 21:44:39;;;;;;;7.55;0.90;;;8.60;99.90;;;;;;4927450;28;86840;-86
2023/12/29 21:47:31;;;;;;;3.55;1.00;;;8.50;99.90;;;;;;4929792;28;87430;-86
2023/12/29 21:50:14;;;;;;;7.88;1.60;;;8.50;99.90;;;;;;4953932;28;85817;-86
2023/12/29 21:53:10;;;;;;;11.27;1.55;;;8.50;99.90;;;;;;4943523;28;85928;-86
2023/12/29 21:56:03;;;;;;;13.85;2.15;;;8.50;99.90;;;;;;4944217;28;86597;-86
2023/12/29 21:58:34;;;;;;;11.57;2.00;;;8.50;99.90;;;;;;4933555;28;87342;-87
2023/12/29 22:01:37;;;;;;;11.50;0.93;;;8.50;99.90;;;;;;4945271;28;86148;-86
2023/12/29 22:04:20;;;;;;;12.95;1.55;;;8.60;99.90;;;;;;4942824;28;85543;-86
2023/12/29 22:07:10;;;;;;;15.10;1.60;;;8.60;99.90;;;;;;4944625;28;86545;-86
2023/12/29 22:10:19;;;;;;;19.77;2.17;;;8.70;99.90;;;;;;4943871;28;92457;-84
2023/12/29 22:13:09;;;;;;;13.27;1.40;;;8.80;99.90;;;;;;4928248;28;89692;-87
2023/12/29 22:15:57;;;;;;;15.63;1.65;;;8.90;99.90;;;;;;4940454;28;86246;-86
2023/12/29 22:18:25;;;;;;;13.90;2.00;;;8.90;99.90;;;;;;4924165;28;87569;-85
2023/12/29 22:21:08;;;;;;;15.18;2.42;;;9.00;99.90;;;;;;4951123;28;88574;-86
2023/12/29 22:23:41;;;;;;;8.80;1.30;;;9.00;99.90;;;;;;4934843;28;86120;-86
2023/12/29 22:26:18;;;;;;;;;;;9.00;99.90;;;;;;4936831;28;86044;-86
2023/12/29 22:28:56;;;;;;;11.70;1.70;;;9.00;99.90;;;;;;4947725;28;87667;-86
2023/12/29 22:31:42;;;;;;;14.10;1.60;;;9.10;99.90;;;;;;4955085;28;86341;-87
2023/12/29 22:34:11;;;;;;;16.73;1.60;;;9.10;99.90;;;;;;4955068;28;87548;-86
2023/12/29 22:37:10;;;;;;;14.63;1.67;;;9.10;99.90;;;;;;4942891;28;86020;-86
2023/12/29 22:39:42;;;;;;;8.70;1.42;;;9.10;99.90;;;;;;4924884;28;87465;-86
2023/12/29 22:42:09;;;;;;;9.00;1.40;;;9.10;99.90;;;;;;4934794;28;88118;-86
2023/12/29 22:44:46;;;;;;;15.75;1.77;;;9.10;99.90;;;;;;4922227;28;86101;-84
2023/12/29 22:47:34;;;;;;;13.98;1.70;;;9.00;99.90;;;;;;4950913;28;85709;-86
2023/12/29 22:50:22;;;;;;;16.05;1.50;;;9.00;99.90;;;;;;4950832;28;85830;-86
2023/12/29 22:53:23;;;;;;;21.92;1.98;;;9.00;99.90;;;;;;4947182;28;87201;-86
2023/12/29 22:56:11;;;;;;;12.65;2.03;;;9.00;99.90;;;;;;4942937;28;85820;-86
2023/12/29 22:58:44;;;;;;;14.85;1.90;;;9.00;99.90;;;;;;4952520;28;89039;-86
2023/12/29 23:01:24;;;;;;;15.52;1.70;;;9.00;99.90;;;;;;4927050;28;85790;-85
2023/12/29 23:04:21;;;;;;;14.35;1.60;;;8.90;99.90;;;;;;4964617;28;87860;-86
2023/12/29 23:07:11;;;;;;;10.18;1.85;;;8.90;99.90;;;;;;4942561;28;86978;-86
2023/12/29 23:09:42;;;;;;;20.38;1.92;;;8.90;99.90;;;;;;4943521;28;85668;-86
2023/12/29 23:12:16;;;;;;;13.40;1.88;;;9.00;99.90;;;;;;4929756;28;88946;-85
2023/12/29 23:14:45;;;;;;;10.43;1.75;;;8.90;99.90;;;;;;4954977;28;87180;-87
2023/12/29 23:17:26;;;;;;;20.48;3.65;;;8.90;99.90;;;;;;4942781;28;85854;-86
2023/12/29 23:19:53;;;;;;;17.35;1.95;;;8.90;99.90;;;;;;4938194;28;85773;-86
2023/12/29 23:22:36;;;;;;;20.30;2.33;;;8.90;99.90;;;;;;4929349;28;86928;-86
2023/12/29 23:25:52;;;;;;;18.15;1.85;;;9.00;99.90;;;;;;4943873;28;87765;-86
2023/12/29 23:28:49;;;;;;;20.73;2.20;;;8.90;99.90;;;;;;4954011;28;85734;-86
2023/12/29 23:31:19;;;;;;;18.58;3.05;;;8.90;99.90;;;;;;4908168;28;85764;-86
2023/12/29 23:33:50;;;;;;;18.63;2.65;;;8.90;99.90;;;;;;4944524;28;87115;-86
2023/12/29 23:36:21;;;;;;;22.13;3.58;;;8.90;99.90;;;;;;4939329;28;86951;-86
2023/12/29 23:38:51;;;;;;;20.83;2.15;;;8.90;99.90;;;;;;4952770;28;85900;-86
2023/12/29 23:41:17;;;;;;;18.17;2.85;;;8.90;99.90;;;;;;4926594;28;85937;-86
2023/12/29 23:44:20;;;;;;;23.63;2.00;;;8.90;99.90;;;;;;4962941;28;87000;-86
2023/12/29 23:46:52;;;;;;;19.40;2.72;;;8.90;99.90;;;;;;4941401;28;91044;-86
2023/12/29 23:49:26;;;;;;;19.65;2.75;;;8.90;99.90;;;;;;4928830;28;86094;-86
2023/12/29 23:51:59;;;;;;;17.50;2.13;;;8.90;99.90;;;;;;4936520;28;86091;-87
2023/12/29 23:54:29;;;;;;;21.83;2.17;;;8.80;99.90;;;;;;4938415;28;88904;-88
2023/12/29 23:57:15;;;;;;;14.73;2.55;;;8.90;99.90;;;;;;4926155;28;87245;-87
2023/12/29 23:59:42;;;;;;;22.70;2.85;;;8.90;99.90;;;;;;4944729;28;87447;-86
